sensor_id;sensor_type;location;lat;lon;timestamp;pressure;altitude;pressure_sealevel;temperature;humidity
70027;BME280;57506;50.092;15.804;2023-01-29T00:01:11;100292.63;;;-2.99;100.00
70027;BME280;57506;50.092;15.804;2023-01-29T00:03:36;100287.00;;;-3.09;100.00
70027;BME280;57506;50.092;15.804;2023-01-29T00:06:06;100252.06;;;-3.30;100.00
70027;BME280;57506;50.092;15.804;2023-01-29T00:08:33;100279.47;;;-3.17;100.00
70027;BME280;57506;50.092;15.804;2023-01-29T00:11:04;100287.66;;;-3.05;100.00
70027;BME280;57506;50.092;15.804;2023-01-29T00:13:30;100298.75;;;-2.99;100.00
70027;BME280;57506;50.092;15.804;2023-01-29T00:15:57;100227.97;;;-3.39;100.00
70027;BME280;57506;50.092;15.804;2023-01-29T00:18:24;100255.69;;;-3.15;100.00
70027;BME280;57506;50.092;15.804;2023-01-29T00:20:50;100250.72;;;-3.21;100.00
70027;BME280;57506;50.092;15.804;2023-01-29T00:23:16;100271.84;;;-3.05;100.00
70027;BME280;57506;50.092;15.804;2023-01-29T00:25:42;100290.75;;;-2.97;100.00
70027;BME280;57506;50.092;15.804;2023-01-29T00:28:08;100191.97;;;-3.56;100.00
70027;BME280;57506;50.092;15.804;2023-01-29T00:30:35;100260.25;;;-3.19;100.00
70027;BME280;57506;50.092;15.804;2023-01-29T00:33:00;100292.63;;;-2.99;100.00
70027;BME280;57506;50.092;15.804;2023-01-29T00:35:26;100223.47;;;-3.37;100.00
70027;BME280;57506;50.092;15.804;2023-01-29T00:37:54;100269.47;;;-3.10;100.00
70027;BME280;57506;50.092;15.804;2023-01-29T00:40:19;100253.34;;;-3.21;100.00
70027;BME280;57506;50.092;15.804;2023-01-29T00:42:45;100246.78;;;-3.30;100.00
70027;BME280;57506;50.092;15.804;2023-01-29T00:45:29;100291.50;;;-3.11;100.00
70027;BME280;57506;50.092;15.804;2023-01-29T00:47:54;100251.28;;;-3.32;100.00
70027;BME280;57506;50.092;15.804;2023-01-29T00:50:20;100265.00;;;-3.25;100.00
70027;BME280;57506;50.092;15.804;2023-01-29T00:52:46;100235.13;;;-3.41;100.00
70027;BME280;57506;50.092;15.804;2023-01-29T00:55:12;100249.44;;;-3.30;100.00
70027;BME280;57506;50.092;15.804;2023-01-29T00:57:38;100244.47;;;-3.36;100.00
70027;BME280;57506;50.092;15.804;2023-01-29T01:00:05;100293.47;;;-2.99;100.00
70027;BME280;57506;50.092;15.804;2023-01-29T01:02:31;100254.56;;;-3.27;100.00
70027;BME280;57506;50.092;15.804;2023-01-29T01:05:16;100279.31;;;-3.13;100.00
70027;BME280;57506;50.092;15.804;2023-01-29T01:07:44;100301.31;;;-2.97;100.00
70027;BME280;57506;50.092;15.804;2023-01-29T01:10:17;100278.63;;;-3.17;100.00
70027;BME280;57506;50.092;15.804;2023-01-29T01:12:47;100238.44;;;-3.38;100.00
70027;BME280;57506;50.092;15.804;2023-01-29T01:15:12;100247.88;;;-3.34;100.00
70027;BME280;57506;50.092;15.804;2023-01-29T01:17:38;100223.63;;;-3.40;100.00
70027;BME280;57506;50.092;15.804;2023-01-29T01:20:04;100283.31;;;-3.06;100.00
70027;BME280;57506;50.092;15.804;2023-01-29T01:22:29;100270.13;;;-3.06;100.00
70027;BME280;57506;50.092;15.804;2023-01-29T01:24:56;100271.53;;;-2.99;100.00
70027;BME280;57506;50.092;15.804;2023-01-29T01:27:21;100173.63;;;-3.25;100.00
70027;BME280;57506;50.092;15.804;2023-01-29T01:29:47;100263.88;;;-2.88;100.00
70027;BME280;57506;50.092;15.804;2023-01-29T01:32:12;100183.75;;;-3.50;100.00
70027;BME280;57506;50.092;15.804;2023-01-29T01:34:38;100220.28;;;-3.27;100.00
70027;BME280;57506;50.092;15.804;2023-01-29T01:37:03;100223.06;;;-3.30;100.00
70027;BME280;57506;50.092;15.804;2023-01-29T01:39:29;100201.72;;;-3.41;100.00
70027;BME280;57506;50.092;15.804;2023-01-29T01:41:54;100226.56;;;-3.29;100.00
70027;BME280;57506;50.092;15.804;2023-01-29T01:47:28;100243.78;;;-3.06;100.00
70027;BME280;57506;50.092;15.804;2023-01-29T01:49:57;100253.84;;;-2.97;100.00
70027;BME280;57506;50.092;15.804;2023-01-29T01:52:28;100244.38;;;-3.01;100.00
70027;BME280;57506;50.092;15.804;2023-01-29T01:54:56;100204.28;;;-3.24;100.00
70027;BME280;57506;50.092;15.804;2023-01-29T01:57:22;100252.13;;;-2.98;100.00
70027;BME280;57506;50.092;15.804;2023-01-29T01:59:57;100232.56;;;-3.10;100.00
70027;BME280;57506;50.092;15.804;2023-01-29T02:02:24;100241.06;;;-3.05;100.00
70027;BME280;57506;50.092;15.804;2023-01-29T02:05:10;100220.38;;;-3.12;100.00
70027;BME280;57506;50.092;15.804;2023-01-29T02:07:55;100249.91;;;-2.90;100.00
70027;BME280;57506;50.092;15.804;2023-01-29T02:10:42;100233.78;;;-2.84;100.00
70027;BME280;57506;50.092;15.804;2023-01-29T02:13:08;100239.91;;;-2.68;100.00
70027;BME280;57506;50.092;15.804;2023-01-29T02:15:35;100256.59;;;-2.83;100.00
70027;BME280;57506;50.092;15.804;2023-01-29T02:18:00;100246.88;;;-2.98;100.00
70027;BME280;57506;50.092;15.804;2023-01-29T02:20:28;100246.94;;;-3.00;100.00
70027;BME280;57506;50.092;15.804;2023-01-29T02:23:20;100271.38;;;-2.96;100.00
70027;BME280;57506;50.092;15.804;2023-01-29T02:26:14;100263.63;;;-2.99;100.00
70027;BME280;57506;50.092;15.804;2023-01-29T02:32:03;100260.66;;;-2.93;100.00
70027;BME280;57506;50.092;15.804;2023-01-29T02:35:27;100263.03;;;-2.89;100.00
70027;BME280;57506;50.092;15.804;2023-01-29T02:37:53;100268.47;;;-2.92;100.00
70027;BME280;57506;50.092;15.804;2023-01-29T02:43:52;100257.13;;;-2.76;100.00
70027;BME280;57506;50.092;15.804;2023-01-29T02:49:07;100237.19;;;-2.82;100.00
70027;BME280;57506;50.092;15.804;2023-01-29T02:56:58;100227.41;;;-2.64;100.00
70027;BME280;57506;50.092;15.804;2023-01-29T02:59:34;100221.34;;;-2.82;100.00
70027;BME280;57506;50.092;15.804;2023-01-29T03:02:06;100238.19;;;-2.85;100.00
70027;BME280;57506;50.092;15.804;2023-01-29T03:04:38;100234.28;;;-2.93;100.00
70027;BME280;57506;50.092;15.804;2023-01-29T03:07:09;100225.59;;;-2.95;100.00
70027;BME280;57506;50.092;15.804;2023-01-29T03:09:59;100247.47;;;-2.93;100.00
70027;BME280;57506;50.092;15.804;2023-01-29T03:12:28;100255.88;;;-2.87;100.00
70027;BME280;57506;50.092;15.804;2023-01-29T03:15:04;100246.53;;;-2.92;100.00
70027;BME280;57506;50.092;15.804;2023-01-29T03:18:01;100264.50;;;-2.83;100.00
70027;BME280;57506;50.092;15.804;2023-01-29T03:20:34;100258.38;;;-2.84;100.00
70027;BME280;57506;50.092;15.804;2023-01-29T03:23:13;100262.19;;;-2.89;100.00
70027;BME280;57506;50.092;15.804;2023-01-29T03:25:41;100271.41;;;-2.80;100.00
70027;BME280;57506;50.092;15.804;2023-01-29T03:28:28;100268.22;;;-2.87;100.00
70027;BME280;57506;50.092;15.804;2023-01-29T03:31:13;100270.09;;;-2.89;100.00
70027;BME280;57506;50.092;15.804;2023-01-29T03:34:12;100250.97;;;-2.93;100.00
70027;BME280;57506;50.092;15.804;2023-01-29T03:36:57;100266.53;;;-2.88;100.00
70027;BME280;57506;50.092;15.804;2023-01-29T03:39:26;100271.78;;;-2.88;100.00
70027;BME280;57506;50.092;15.804;2023-01-29T03:44:55;100272.16;;;-2.94;100.00
70027;BME280;57506;50.092;15.804;2023-01-29T03:53:29;100271.22;;;-2.93;98.15
70027;BME280;57506;50.092;15.804;2023-01-29T03:56:01;100268.66;;;-2.95;97.93
70027;BME280;57506;50.092;15.804;2023-01-29T04:01:13;100254.50;;;-3.09;97.30
70027;BME280;57506;50.092;15.804;2023-01-29T04:04:11;100244.13;;;-3.12;96.32
70027;BME280;57506;50.092;15.804;2023-01-29T04:06:41;100239.53;;;-3.09;96.25
70027;BME280;57506;50.092;15.804;2023-01-29T04:09:21;100254.09;;;-3.02;98.00
70027;BME280;57506;50.092;15.804;2023-01-29T04:11:52;100235.28;;;-3.11;100.00
70027;BME280;57506;50.092;15.804;2023-01-29T04:14:19;100242.41;;;-3.13;98.56
70027;BME280;57506;50.092;15.804;2023-01-29T04:16:48;100246.59;;;-3.09;97.67
70027;BME280;57506;50.092;15.804;2023-01-29T04:19:15;100255.88;;;-3.02;98.59
70027;BME280;57506;50.092;15.804;2023-01-29T04:21:41;100242.06;;;-3.07;99.31
70027;BME280;57506;50.092;15.804;2023-01-29T04:24:08;100244.31;;;-3.00;98.22
70027;BME280;57506;50.092;15.804;2023-01-29T04:32:26;100225.31;;;-3.06;100.00
70027;BME280;57506;50.092;15.804;2023-01-29T04:40:19;100233.34;;;-2.92;100.00
70027;BME280;57506;50.092;15.804;2023-01-29T04:46:14;100220.25;;;-2.94;100.00
70027;BME280;57506;50.092;15.804;2023-01-29T04:51:19;100207.16;;;-2.95;100.00
70027;BME280;57506;50.092;15.804;2023-01-29T04:53:56;100221.59;;;-2.87;99.35
70027;BME280;57506;50.092;15.804;2023-01-29T04:56:45;100211.41;;;-2.93;100.00
70027;BME280;57506;50.092;15.804;2023-01-29T04:59:18;100211.50;;;-2.94;100.00
70027;BME280;57506;50.092;15.804;2023-01-29T05:01:47;100203.66;;;-2.96;100.00
70027;BME280;57506;50.092;15.804;2023-01-29T05:04:17;100212.84;;;-2.87;100.00
70027;BME280;57506;50.092;15.804;2023-01-29T05:06:44;100212.91;;;-2.89;100.00
70027;BME280;57506;50.092;15.804;2023-01-29T05:09:13;100216.41;;;-2.88;100.00
70027;BME280;57506;50.092;15.804;2023-01-29T05:11:40;100212.06;;;-2.89;100.00
70027;BME280;57506;50.092;15.804;2023-01-29T05:14:08;100206.38;;;-2.97;100.00
70027;BME280;57506;50.092;15.804;2023-01-29T05:16:43;100208.06;;;-2.96;100.00
70027;BME280;57506;50.092;15.804;2023-01-29T05:19:12;100195.22;;;-3.02;99.07
70027;BME280;57506;50.092;15.804;2023-01-29T05:21:39;100199.56;;;-3.01;99.65
70027;BME280;57506;50.092;15.804;2023-01-29T05:26:38;100192.41;;;-2.99;100.00
70027;BME280;57506;50.092;15.804;2023-01-29T05:29:22;100201.97;;;-2.97;100.00
70027;BME280;57506;50.092;15.804;2023-01-29T05:31:48;100203.13;;;-3.02;99.85
70027;BME280;57506;50.092;15.804;2023-01-29T05:34:13;100209.78;;;-2.95;100.00
70027;BME280;57506;50.092;15.804;2023-01-29T05:36:39;100202.97;;;-2.99;100.00
70027;BME280;57506;50.092;15.804;2023-01-29T05:39:04;100206.53;;;-3.00;99.92
70027;BME280;57506;50.092;15.804;2023-01-29T05:41:30;100210.09;;;-3.01;99.97
70027;BME280;57506;50.092;15.804;2023-01-29T05:43:55;100203.47;;;-3.08;100.00
70027;BME280;57506;50.092;15.804;2023-01-29T05:46:20;100207.91;;;-3.09;99.65
70027;BME280;57506;50.092;15.804;2023-01-29T05:48:46;100201.94;;;-3.12;96.43
70027;BME280;57506;50.092;15.804;2023-01-29T05:51:11;100198.59;;;-3.16;100.00
70027;BME280;57506;50.092;15.804;2023-01-29T05:53:37;100176.56;;;-3.31;100.00
70027;BME280;57506;50.092;15.804;2023-01-29T05:56:04;100217.75;;;-3.12;100.00
70027;BME280;57506;50.092;15.804;2023-01-29T05:58:30;100224.13;;;-3.17;100.00
70027;BME280;57506;50.092;15.804;2023-01-29T06:00:56;100202.69;;;-3.26;100.00
70027;BME280;57506;50.092;15.804;2023-01-29T06:03:22;100194.16;;;-3.31;100.00
70027;BME280;57506;50.092;15.804;2023-01-29T06:05:47;100183.38;;;-3.27;100.00
70027;BME280;57506;50.092;15.804;2023-01-29T06:08:13;100189.44;;;-3.25;100.00
70027;BME280;57506;50.092;15.804;2023-01-29T06:10:38;100192.06;;;-3.25;100.00
70027;BME280;57506;50.092;15.804;2023-01-29T06:13:04;100168.56;;;-3.45;100.00
70027;BME280;57506;50.092;15.804;2023-01-29T06:15:29;100200.53;;;-3.35;100.00
70027;BME280;57506;50.092;15.804;2023-01-29T06:17:55;100192.09;;;-3.42;100.00
70027;BME280;57506;50.092;15.804;2023-01-29T06:20:21;100196.34;;;-3.39;100.00
70027;BME280;57506;50.092;15.804;2023-01-29T06:22:47;100208.34;;;-3.34;100.00
70027;BME280;57506;50.092;15.804;2023-01-29T06:25:12;100181.66;;;-3.43;100.00
70027;BME280;57506;50.092;15.804;2023-01-29T06:27:38;100199.66;;;-3.36;100.00
70027;BME280;57506;50.092;15.804;2023-01-29T06:30:04;100193.91;;;-3.42;100.00
70027;BME280;57506;50.092;15.804;2023-01-29T06:32:30;100200.75;;;-3.40;100.00
70027;BME280;57506;50.092;15.804;2023-01-29T06:34:56;100211.84;;;-3.33;100.00
70027;BME280;57506;50.092;15.804;2023-01-29T06:37:21;100182.97;;;-3.52;100.00
70027;BME280;57506;50.092;15.804;2023-01-29T06:39:47;100186.53;;;-3.53;100.00
70027;BME280;57506;50.092;15.804;2023-01-29T06:42:12;100196.75;;;-3.47;100.00
70027;BME280;57506;50.092;15.804;2023-01-29T06:44:38;100213.53;;;-3.32;100.00
70027;BME280;57506;50.092;15.804;2023-01-29T06:47:03;100208.34;;;-3.34;100.00
70027;BME280;57506;50.092;15.804;2023-01-29T06:49:29;100196.53;;;-3.42;100.00
70027;BME280;57506;50.092;15.804;2023-01-29T06:51:54;100191.84;;;-3.37;100.00
70027;BME280;57506;50.092;15.804;2023-01-29T06:54:20;100201.22;;;-3.32;100.00
70027;BME280;57506;50.092;15.804;2023-01-29T06:56:46;100189.13;;;-3.36;100.00
70027;BME280;57506;50.092;15.804;2023-01-29T06:59:11;100190.22;;;-3.40;100.00
70027;BME280;57506;50.092;15.804;2023-01-29T07:01:40;100193.63;;;-3.38;100.00
70027;BME280;57506;50.092;15.804;2023-01-29T07:04:08;100221.22;;;-3.28;100.00
70027;BME280;57506;50.092;15.804;2023-01-29T07:06:34;100218.56;;;-3.28;100.00
70027;BME280;57506;50.092;15.804;2023-01-29T07:09:02;100206.50;;;-3.32;100.00
70027;BME280;57506;50.092;15.804;2023-01-29T07:11:28;100230.63;;;-3.24;100.00
70027;BME280;57506;50.092;15.804;2023-01-29T07:13:53;100225.28;;;-3.22;100.00
70027;BME280;57506;50.092;15.804;2023-01-29T07:16:19;100224.34;;;-3.21;100.00
70027;BME280;57506;50.092;15.804;2023-01-29T07:18:44;100167.50;;;-3.58;100.00
70027;BME280;57506;50.092;15.804;2023-01-29T07:21:10;100223.44;;;-3.20;100.00
70027;BME280;57506;50.092;15.804;2023-01-29T07:23:35;100236.28;;;-3.14;100.00
70027;BME280;57506;50.092;15.804;2023-01-29T07:26:02;100210.06;;;-3.33;100.00
70027;BME280;57506;50.092;15.804;2023-01-29T07:28:29;100249.41;;;-3.12;100.00
70027;BME280;57506;50.092;15.804;2023-01-29T07:30:56;100240.72;;;-3.14;100.00
70027;BME280;57506;50.092;15.804;2023-01-29T07:33:21;100237.31;;;-3.17;100.00
70027;BME280;57506;50.092;15.804;2023-01-29T07:35:47;100228.53;;;-3.17;100.00
70027;BME280;57506;50.092;15.804;2023-01-29T07:38:12;100249.03;;;-3.06;100.00
70027;BME280;57506;50.092;15.804;2023-01-29T07:40:38;100267.19;;;-3.00;100.00
70027;BME280;57506;50.092;15.804;2023-01-29T07:43:05;100274.00;;;-2.96;100.00
70027;BME280;57506;50.092;15.804;2023-01-29T07:45:33;100276.22;;;-2.89;100.00
70027;BME280;57506;50.092;15.804;2023-01-29T07:47:59;100272.91;;;-2.92;100.00
70027;BME280;57506;50.092;15.804;2023-01-29T07:50:25;100260.75;;;-2.95;100.00
70027;BME280;57506;50.092;15.804;2023-01-29T07:52:53;100213.97;;;-3.24;100.00
70027;BME280;57506;50.092;15.804;2023-01-29T07:55:19;100229.63;;;-3.21;100.00
70027;BME280;57506;50.092;15.804;2023-01-29T07:57:45;100263.38;;;-2.95;100.00
70027;BME280;57506;50.092;15.804;2023-01-29T08:00:11;100285.34;;;-2.78;100.00
70027;BME280;57506;50.092;15.804;2023-01-29T08:02:38;100187.94;;;-3.46;100.00
70027;BME280;57506;50.092;15.804;2023-01-29T08:05:04;100204.34;;;-3.41;100.00
70027;BME280;57506;50.092;15.804;2023-01-29T08:07:29;100231.09;;;-3.15;100.00
70027;BME280;57506;50.092;15.804;2023-01-29T08:09:55;100266.81;;;-2.77;100.00
70027;BME280;57506;50.092;15.804;2023-01-29T08:12:21;100255.41;;;-2.77;100.00
70027;BME280;57506;50.092;15.804;2023-01-29T08:14:46;100242.63;;;-2.85;100.00
70027;BME280;57506;50.092;15.804;2023-01-29T08:17:12;100282.44;;;-2.74;100.00
70027;BME280;57506;50.092;15.804;2023-01-29T08:19:38;100286.88;;;-2.74;100.00
70027;BME280;57506;50.092;15.804;2023-01-29T08:22:04;100291.66;;;-2.65;100.00
70027;BME280;57506;50.092;15.804;2023-01-29T08:24:30;100293.13;;;-2.60;100.00
70027;BME280;57506;50.092;15.804;2023-01-29T08:26:56;100305.97;;;-2.54;100.00
70027;BME280;57506;50.092;15.804;2023-01-29T08:29:22;100232.31;;;-2.90;100.00
70027;BME280;57506;50.092;15.804;2023-01-29T08:31:47;100262.25;;;-2.91;100.00
70027;BME280;57506;50.092;15.804;2023-01-29T08:34:13;100280.34;;;-2.67;99.76
70027;BME280;57506;50.092;15.804;2023-01-29T08:36:39;100269.19;;;-2.72;98.05
70027;BME280;57506;50.092;15.804;2023-01-29T08:39:05;100303.47;;;-2.72;97.79
70027;BME280;57506;50.092;15.804;2023-01-29T08:41:30;100318.91;;;-2.65;97.94
70027;BME280;57506;50.092;15.804;2023-01-29T08:43:56;100229.84;;;-3.08;100.00
70027;BME280;57506;50.092;15.804;2023-01-29T08:46:22;100319.94;;;-2.52;97.93
70027;BME280;57506;50.092;15.804;2023-01-29T08:48:48;100309.03;;;-2.77;94.44
70027;BME280;57506;50.092;15.804;2023-01-29T08:51:14;100292.06;;;-2.73;95.20
70027;BME280;57506;50.092;15.804;2023-01-29T08:53:39;100320.78;;;-2.51;96.86
70027;BME280;57506;50.092;15.804;2023-01-29T08:56:05;100275.47;;;-2.75;96.29
70027;BME280;57506;50.092;15.804;2023-01-29T08:58:31;100313.72;;;-2.51;95.65
70027;BME280;57506;50.092;15.804;2023-01-29T09:01:05;100262.88;;;-2.70;94.68
70027;BME280;57506;50.092;15.804;2023-01-29T09:03:31;100313.47;;;-2.46;94.37
70027;BME280;57506;50.092;15.804;2023-01-29T09:05:56;100315.50;;;-2.51;93.68
70027;BME280;57506;50.092;15.804;2023-01-29T09:08:22;100281.28;;;-2.68;94.47
70027;BME280;57506;50.092;15.804;2023-01-29T09:10:48;100280.75;;;-2.75;92.94
70027;BME280;57506;50.092;15.804;2023-01-29T09:13:13;100238.88;;;-2.97;92.78
70027;BME280;57506;50.092;15.804;2023-01-29T09:15:39;100281.28;;;-2.53;94.71
70027;BME280;57506;50.092;15.804;2023-01-29T09:18:04;100271.06;;;-2.59;93.27
70027;BME280;57506;50.092;15.804;2023-01-29T09:20:30;100228.66;;;-2.87;93.59
70027;BME280;57506;50.092;15.804;2023-01-29T09:22:56;100227.41;;;-2.80;93.40
70027;BME280;57506;50.092;15.804;2023-01-29T09:25:23;100269.63;;;-2.49;92.78
70027;BME280;57506;50.092;15.804;2023-01-29T09:27:49;100270.38;;;-2.15;94.09
70027;BME280;57506;50.092;15.804;2023-01-29T09:30:15;100265.94;;;-2.15;93.04
70027;BME280;57506;50.092;15.804;2023-01-29T09:32:41;100225.75;;;-2.20;93.25
70027;BME280;57506;50.092;15.804;2023-01-29T09:35:07;100201.66;;;-2.29;92.99
70027;BME280;57506;50.092;15.804;2023-01-29T09:37:33;100218.16;;;-2.26;94.78
70027;BME280;57506;50.092;15.804;2023-01-29T09:39:59;100247.53;;;-2.16;93.26
70027;BME280;57506;50.092;15.804;2023-01-29T09:42:29;100244.47;;;-2.24;93.54
70027;BME280;57506;50.092;15.804;2023-01-29T09:45:25;100260.69;;;-2.30;93.36
70027;BME280;57506;50.092;15.804;2023-01-29T09:47:55;100250.88;;;-2.28;93.71
70027;BME280;57506;50.092;15.804;2023-01-29T09:50:28;100244.19;;;-2.04;93.58
70027;BME280;57506;50.092;15.804;2023-01-29T09:53:08;100223.59;;;-1.83;94.84
70027;BME280;57506;50.092;15.804;2023-01-29T09:55:59;100223.56;;;-1.97;90.07
70027;BME280;57506;50.092;15.804;2023-01-29T09:58:44;100214.34;;;-1.76;89.78
70027;BME280;57506;50.092;15.804;2023-01-29T10:24:23;100247.00;;;-1.47;90.28
70027;BME280;57506;50.092;15.804;2023-01-29T10:26:52;100184.91;;;-1.84;90.03
70027;BME280;57506;50.092;15.804;2023-01-29T10:29:18;100154.13;;;-1.99;88.92
70027;BME280;57506;50.092;15.804;2023-01-29T10:31:52;100179.53;;;-1.83;90.42
70027;BME280;57506;50.092;15.804;2023-01-29T10:34:29;100210.19;;;-1.36;89.89
70027;BME280;57506;50.092;15.804;2023-01-29T10:36:58;100145.81;;;-1.93;90.15
70027;BME280;57506;50.092;15.804;2023-01-29T10:39:25;100158.59;;;-1.71;89.27
70027;BME280;57506;50.092;15.804;2023-01-29T10:53:18;100187.59;;;-1.13;89.68
70027;BME280;57506;50.092;15.804;2023-01-29T10:58:53;100186.00;;;-1.44;86.25
70027;BME280;57506;50.092;15.804;2023-01-29T11:01:19;100124.16;;;-1.70;90.00
70027;BME280;57506;50.092;15.804;2023-01-29T11:03:45;100180.06;;;-1.48;87.35
70027;BME280;57506;50.092;15.804;2023-01-29T11:12:02;100164.06;;;-1.60;87.84
70027;BME280;57506;50.092;15.804;2023-01-29T11:14:50;100148.22;;;-1.74;89.95
70027;BME280;57506;50.092;15.804;2023-01-29T11:17:20;100105.75;;;-1.71;88.88
70027;BME280;57506;50.092;15.804;2023-01-29T11:19:48;100121.69;;;-1.45;89.77
70027;BME280;57506;50.092;15.804;2023-01-29T11:22:18;100155.84;;;-1.13;90.68
70027;BME280;57506;50.092;15.804;2023-01-29T11:24:45;100118.41;;;-1.34;87.19
70027;BME280;57506;50.092;15.804;2023-01-29T11:27:25;100100.25;;;-1.26;87.24
70027;BME280;57506;50.092;15.804;2023-01-29T11:29:54;100073.03;;;-1.14;90.35
70027;BME280;57506;50.092;15.804;2023-01-29T11:37:41;100151.78;;;-1.04;89.41
70027;BME280;57506;50.092;15.804;2023-01-29T11:40:39;100135.91;;;-1.04;90.96
70027;BME280;57506;50.092;15.804;2023-01-29T11:43:22;100125.91;;;-0.73;90.33
70027;BME280;57506;50.092;15.804;2023-01-29T11:45:53;100118.31;;;-0.64;88.31
70027;BME280;57506;50.092;15.804;2023-01-29T11:48:22;100073.69;;;-0.83;87.05
70027;BME280;57506;50.092;15.804;2023-01-29T11:50:57;100110.22;;;-0.76;89.33
70027;BME280;57506;50.092;15.804;2023-01-29T11:53:39;100068.25;;;-1.35;87.46
70027;BME280;57506;50.092;15.804;2023-01-29T11:58:45;100051.03;;;-0.87;89.23
70027;BME280;57506;50.092;15.804;2023-01-29T12:01:15;100068.94;;;-1.05;88.55
70027;BME280;57506;50.092;15.804;2023-01-29T12:03:44;100047.13;;;-1.50;87.71
70027;BME280;57506;50.092;15.804;2023-01-29T12:06:25;100064.69;;;-1.49;87.81
70027;BME280;57506;50.092;15.804;2023-01-29T12:08:57;100059.72;;;-1.67;89.99
70027;BME280;57506;50.092;15.804;2023-01-29T12:11:32;100091.38;;;-1.39;93.25
70027;BME280;57506;50.092;15.804;2023-01-29T12:14:03;100091.38;;;-1.39;88.02
70027;BME280;57506;50.092;15.804;2023-01-29T12:16:52;100074.59;;;-1.52;89.89
70027;BME280;57506;50.092;15.804;2023-01-29T12:22:05;100052.13;;;-1.59;91.16
70027;BME280;57506;50.092;15.804;2023-01-29T12:27:31;100068.91;;;-1.32;93.09
70027;BME280;57506;50.092;15.804;2023-01-29T12:39:29;100054.72;;;-1.17;90.33
70027;BME280;57506;50.092;15.804;2023-01-29T12:42:00;100061.25;;;-1.22;91.00
70027;BME280;57506;50.092;15.804;2023-01-29T12:44:47;100064.13;;;-0.98;91.63
70027;BME280;57506;50.092;15.804;2023-01-29T12:47:32;100058.84;;;-1.13;90.63
70027;BME280;57506;50.092;15.804;2023-01-29T12:50:04;100057.34;;;-1.17;88.68
70027;BME280;57506;50.092;15.804;2023-01-29T12:52:47;100058.31;;;-1.18;89.85
70027;BME280;57506;50.092;15.804;2023-01-29T12:55:27;100049.66;;;-1.34;90.68
70027;BME280;57506;50.092;15.804;2023-01-29T12:57:58;100052.69;;;-1.40;92.80
70027;BME280;57506;50.092;15.804;2023-01-29T13:00:28;100049.28;;;-1.42;91.59
70027;BME280;57506;50.092;15.804;2023-01-29T13:06:05;100061.56;;;-1.41;92.98
70027;BME280;57506;50.092;15.804;2023-01-29T13:08:57;100064.56;;;-1.33;93.84
70027;BME280;57506;50.092;15.804;2023-01-29T13:11:52;100062.50;;;-1.42;93.16
70027;BME280;57506;50.092;15.804;2023-01-29T13:14:59;100049.97;;;-1.53;92.28
70027;BME280;57506;50.092;15.804;2023-01-29T13:19:58;100059.00;;;-1.43;95.63
70027;BME280;57506;50.092;15.804;2023-01-29T13:22:28;100045.50;;;-1.38;94.05
70027;BME280;57506;50.092;15.804;2023-01-29T13:24:56;100036.38;;;-1.47;94.17
70027;BME280;57506;50.092;15.804;2023-01-29T13:27:24;100032.75;;;-1.46;95.28
70027;BME280;57506;50.092;15.804;2023-01-29T13:29:51;100009.59;;;-1.28;98.14
70027;BME280;57506;50.092;15.804;2023-01-29T13:32:26;100008.81;;;-1.16;94.53
70027;BME280;57506;50.092;15.804;2023-01-29T13:34:55;99993.69;;;-1.14;96.82
70027;BME280;57506;50.092;15.804;2023-01-29T13:37:36;99975.72;;;-1.09;95.30
70027;BME280;57506;50.092;15.804;2023-01-29T13:40:17;99992.19;;;-0.78;95.17
70027;BME280;57506;50.092;15.804;2023-01-29T13:42:47;99997.63;;;-1.07;94.30
70027;BME280;57506;50.092;15.804;2023-01-29T13:45:27;99978.78;;;-1.15;97.53
70027;BME280;57506;50.092;15.804;2023-01-29T13:48:24;99994.13;;;-1.07;96.19
70027;BME280;57506;50.092;15.804;2023-01-29T13:50:52;99993.09;;;-0.92;95.84
70027;BME280;57506;50.092;15.804;2023-01-29T13:53:37;99961.78;;;-0.98;95.31
70027;BME280;57506;50.092;15.804;2023-01-29T13:59:00;99976.84;;;-0.73;91.94
70027;BME280;57506;50.092;15.804;2023-01-29T14:01:59;99986.56;;;-0.86;95.92
70027;BME280;57506;50.092;15.804;2023-01-29T14:04:29;99982.28;;;-1.14;95.35
70027;BME280;57506;50.092;15.804;2023-01-29T14:07:00;99979.41;;;-1.38;96.16
70027;BME280;57506;50.092;15.804;2023-01-29T14:17:24;99976.81;;;-1.52;95.39
70027;BME280;57506;50.092;15.804;2023-01-29T14:19:53;99985.41;;;-1.49;97.71
70027;BME280;57506;50.092;15.804;2023-01-29T14:22:24;99955.34;;;-1.74;96.71
70027;BME280;57506;50.092;15.804;2023-01-29T14:24:56;99993.44;;;-1.50;100.00
70027;BME280;57506;50.092;15.804;2023-01-29T14:27:24;99981.53;;;-1.57;99.13
70027;BME280;57506;50.092;15.804;2023-01-29T14:29:50;99981.72;;;-1.46;100.00
70027;BME280;57506;50.092;15.804;2023-01-29T14:32:22;99988.31;;;-1.53;95.61
70027;BME280;57506;50.092;15.804;2023-01-29T14:35:03;99983.41;;;-1.59;97.10
70027;BME280;57506;50.092;15.804;2023-01-29T14:37:35;99984.34;;;-1.46;99.43
70027;BME280;57506;50.092;15.804;2023-01-29T14:45:38;99968.50;;;-1.46;96.65
70027;BME280;57506;50.092;15.804;2023-01-29T14:58:55;99956.13;;;-1.19;98.36
70027;BME280;57506;50.092;15.804;2023-01-29T15:01:42;99958.97;;;-1.49;97.83
70027;BME280;57506;50.092;15.804;2023-01-29T15:04:15;99963.50;;;-1.51;99.69
70027;BME280;57506;50.092;15.804;2023-01-29T15:06:54;99957.69;;;-1.43;100.00
70027;BME280;57506;50.092;15.804;2023-01-29T15:11:52;99964.91;;;-1.59;97.84
70027;BME280;57506;50.092;15.804;2023-01-29T15:17:45;99960.25;;;-1.68;99.20
70027;BME280;57506;50.092;15.804;2023-01-29T15:20:43;99962.31;;;-1.73;100.00
70027;BME280;57506;50.092;15.804;2023-01-29T15:23:41;99932.63;;;-1.91;100.00
70027;BME280;57506;50.092;15.804;2023-01-29T15:26:22;99959.84;;;-1.77;98.41
70027;BME280;57506;50.092;15.804;2023-01-29T15:28:56;99955.53;;;-1.78;99.63